createdAt,value
2018-01-29T00:00:52.127Z,7.50
2018-01-29T00:03:21.966Z,7.37
2018-01-29T00:05:51.835Z,7.30
2018-01-29T00:08:21.711Z,7.30
2018-01-29T00:10:51.770Z,8.50
2018-01-29T00:13:21.618Z,9.20
2018-01-29T00:15:51.510Z,8.43
2018-01-29T00:18:21.321Z,9.37
2018-01-29T00:20:51.303Z,9.30
2018-01-29T00:23:21.285Z,10.00
2018-01-29T00:25:51.136Z,10.90
2018-01-29T00:28:21.037Z,8.73
2018-01-29T00:30:50.930Z,9.03
2018-01-29T00:33:20.838Z,9.47
2018-01-29T00:35:50.665Z,9.67
2018-01-29T00:38:20.548Z,11.73
2018-01-29T00:40:50.438Z,10.90
2018-01-29T00:43:20.273Z,11.77
2018-01-29T00:45:50.149Z,11.57
2018-01-29T00:48:20.022Z,12.60
2018-01-29T00:50:49.940Z,13.57
2018-01-29T00:53:19.763Z,13.50
2018-01-29T00:55:49.661Z,12.90
2018-01-29T00:58:19.573Z,14.13
2018-01-29T01:00:49.432Z,13.30
2018-01-29T01:03:19.282Z,13.83
2018-01-29T01:05:49.145Z,14.40
2018-01-29T01:08:19.024Z,12.83
2018-01-29T01:10:48.862Z,14.40
2018-01-29T01:13:18.728Z,11.10
2018-01-29T01:15:48.566Z,12.00
2018-01-29T01:18:18.426Z,10.90
2018-01-29T01:20:48.256Z,13.07
2018-01-29T01:23:18.096Z,9.83
2018-01-29T01:25:47.960Z,10.97
2018-01-29T01:28:17.956Z,11.47
2018-01-29T01:30:47.858Z,10.40
2018-01-29T01:33:17.689Z,11.67
2018-01-29T01:35:47.616Z,10.30
2018-01-29T01:38:17.457Z,11.03
2018-01-29T01:40:47.316Z,9.70
2018-01-29T01:43:17.247Z,10.00
2018-01-29T01:45:47.124Z,9.67
2018-01-29T01:48:17.049Z,8.60
2018-01-29T01:50:46.905Z,8.83
2018-01-29T01:53:16.734Z,8.73
2018-01-29T01:55:46.577Z,8.80
2018-01-29T01:58:16.439Z,9.80
2018-01-29T02:00:46.346Z,9.57
2018-01-29T02:03:16.190Z,8.93
2018-01-29T02:05:46.064Z,7.73
2018-01-29T02:08:15.963Z,8.90
2018-01-29T02:10:45.798Z,8.40
2018-01-29T02:13:15.704Z,8.80
2018-01-29T02:15:45.569Z,9.27
2018-01-29T02:18:16.300Z,9.03
2018-01-29T02:20:46.192Z,8.63
2018-01-29T02:23:16.079Z,8.10
2018-01-29T02:25:46.036Z,8.73
2018-01-29T02:28:15.917Z,7.90
2018-01-29T02:30:45.770Z,6.57
2018-01-29T02:33:15.582Z,7.37
2018-01-29T02:35:45.457Z,5.60
2018-01-29T02:38:15.302Z,8.00
2018-01-29T02:40:45.141Z,5.80
2018-01-29T02:43:14.949Z,6.90
2018-01-29T02:45:44.782Z,5.97
2018-01-29T02:48:14.656Z,6.70
2018-01-29T02:50:44.565Z,6.87
2018-01-29T02:53:14.425Z,7.33
2018-01-29T02:55:44.272Z,6.87
2018-01-29T02:58:14.211Z,6.67
2018-01-29T03:00:44.167Z,6.67
2018-01-29T03:03:14.018Z,6.23
2018-01-29T03:05:43.967Z,6.53
2018-01-29T03:08:13.816Z,5.83
2018-01-29T03:10:43.698Z,6.00
2018-01-29T03:13:13.558Z,6.47
2018-01-29T03:15:43.405Z,6.53
2018-01-29T03:18:13.238Z,6.23
2018-01-29T03:20:43.112Z,5.97
2018-01-29T03:23:12.933Z,6.67
2018-01-29T03:25:42.765Z,6.50
2018-01-29T03:28:12.620Z,6.20
2018-01-29T03:30:42.470Z,5.90
2018-01-29T03:33:12.305Z,7.20
2018-01-29T03:35:42.149Z,7.07
2018-01-29T03:38:11.978Z,7.40
2018-01-29T03:40:42.090Z,6.97
2018-01-29T03:43:11.922Z,6.73
2018-01-29T03:45:41.784Z,6.30
2018-01-29T03:48:11.632Z,6.90
2018-01-29T03:50:41.503Z,6.70
2018-01-29T03:53:11.364Z,5.97
2018-01-29T03:55:41.223Z,5.47
2018-01-29T03:58:11.041Z,7.03
2018-01-29T04:00:40.911Z,6.13
2018-01-29T04:03:10.803Z,7.17
2018-01-29T04:05:40.628Z,5.87
2018-01-29T04:08:10.476Z,5.73
2018-01-29T04:10:40.292Z,6.20
2018-01-29T04:13:10.165Z,6.60
2018-01-29T04:15:39.996Z,7.20
2018-01-29T04:18:09.832Z,6.80
2018-01-29T04:20:39.697Z,6.17
2018-01-29T04:23:09.556Z,6.27
2018-01-29T04:25:39.453Z,6.50
2018-01-29T04:28:09.762Z,7.63
2018-01-29T04:30:39.737Z,6.77
2018-01-29T04:33:09.567Z,6.60
2018-01-29T04:35:39.435Z,5.63
2018-01-29T04:38:09.264Z,4.90
2018-01-29T04:40:39.121Z,6.90
2018-01-29T04:43:09.003Z,4.73
2018-01-29T04:45:46.383Z,7.07
2018-01-29T04:48:16.249Z,2.30
2018-01-29T04:50:46.190Z,2.57
2018-01-29T04:53:16.423Z,3.73
2018-01-29T04:55:46.249Z,3.17
2018-01-29T04:58:16.150Z,3.70
2018-01-29T05:00:46.101Z,3.27
2018-01-29T05:03:15.970Z,3.13
2018-01-29T05:05:45.821Z,3.30
2018-01-29T05:08:15.732Z,2.50
2018-01-29T05:10:45.624Z,3.67
2018-01-29T05:13:15.462Z,3.20
2018-01-29T05:15:45.320Z,3.57
2018-01-29T05:18:15.233Z,3.43
2018-01-29T05:20:45.110Z,3.20
2018-01-29T05:23:14.958Z,2.70
2018-01-29T05:25:44.808Z,3.20
2018-01-29T05:28:15.441Z,2.93
2018-01-29T05:30:45.253Z,3.60
2018-01-29T05:33:15.117Z,2.57
2018-01-29T05:35:46.751Z,4.10
2018-01-29T05:38:17.366Z,3.13
2018-01-29T05:40:47.254Z,3.37
2018-01-29T05:43:17.075Z,3.87
2018-01-29T05:45:46.953Z,3.00
2018-01-29T05:48:16.919Z,3.50
2018-01-29T05:50:46.790Z,3.43
2018-01-29T05:53:16.626Z,4.00
2018-01-29T05:55:46.496Z,2.83
2018-01-29T05:58:16.366Z,1.87
2018-01-29T06:00:46.225Z,2.73
2018-01-29T06:03:16.060Z,2.70
2018-01-29T06:05:45.892Z,3.30
2018-01-29T06:08:15.823Z,1.90
2018-01-29T06:10:45.731Z,2.20
2018-01-29T06:13:15.590Z,2.30
2018-01-29T06:15:45.438Z,2.20
2018-01-29T06:18:15.404Z,2.30
2018-01-29T06:20:45.233Z,3.00
2018-01-29T06:23:15.151Z,2.13
2018-01-29T06:25:45.077Z,2.73
2018-01-29T06:28:15.018Z,2.83
2018-01-29T06:30:44.880Z,3.10
2018-01-29T06:33:14.725Z,2.20
2018-01-29T06:35:44.784Z,2.50
2018-01-29T06:38:14.674Z,2.37
2018-01-29T06:40:44.576Z,2.33
2018-01-29T06:43:14.378Z,2.30
2018-01-29T06:45:44.391Z,2.27
2018-01-29T06:48:14.213Z,2.70
2018-01-29T06:50:44.130Z,1.77
2018-01-29T06:53:14.033Z,2.87
2018-01-29T06:55:43.873Z,2.57
2018-01-29T06:58:13.763Z,2.80
2018-01-29T07:00:43.593Z,2.30
2018-01-29T07:03:13.550Z,2.83
2018-01-29T07:05:43.403Z,3.90
2018-01-29T07:08:13.292Z,3.10
2018-01-29T07:10:43.127Z,3.57
2018-01-29T07:13:12.954Z,4.00
2018-01-29T07:15:42.805Z,3.23
2018-01-29T07:18:12.696Z,3.40
2018-01-29T07:20:42.550Z,4.03
2018-01-29T07:23:12.472Z,3.53
2018-01-29T07:25:42.331Z,4.10
2018-01-29T07:28:12.354Z,3.20
2018-01-29T07:30:42.282Z,4.33
2018-01-29T07:33:12.133Z,2.00
2018-01-29T07:35:42.012Z,3.70
2018-01-29T07:38:11.905Z,3.50
2018-01-29T07:40:41.793Z,4.87
2018-01-29T07:43:11.689Z,1.97
2018-01-29T07:45:41.553Z,3.10
2018-01-29T07:48:11.446Z,2.17
2018-01-29T07:50:41.302Z,3.50
2018-01-29T07:53:11.141Z,2.23
2018-01-29T07:55:41.073Z,3.70
2018-01-29T07:58:10.937Z,2.83
2018-01-29T08:00:40.802Z,3.80
2018-01-29T08:03:10.777Z,3.13
2018-01-29T08:05:40.651Z,2.53
2018-01-29T08:08:10.523Z,2.70
2018-01-29T08:10:40.473Z,3.27
2018-01-29T08:13:10.332Z,2.20
2018-01-29T08:15:40.210Z,2.67
2018-01-29T08:18:10.114Z,3.73
2018-01-29T08:20:40.051Z,2.70
2018-01-29T08:23:09.987Z,2.83
2018-01-29T08:25:39.899Z,2.30
2018-01-29T08:28:09.769Z,2.57
2018-01-29T08:30:39.664Z,2.23
2018-01-29T08:33:10.726Z,2.50
2018-01-29T08:35:40.651Z,1.57
2018-01-29T08:38:10.581Z,1.73
2018-01-29T08:40:40.481Z,1.80
2018-01-29T08:43:10.441Z,1.83
2018-01-29T08:45:40.302Z,3.03
2018-01-29T08:48:10.141Z,2.50
2018-01-29T08:50:40.027Z,2.07
2018-01-29T08:53:09.884Z,3.50
2018-01-29T08:55:39.754Z,2.17
2018-01-29T08:58:10.526Z,1.80
2018-01-29T09:00:40.385Z,2.60
2018-01-29T09:03:10.279Z,2.13
2018-01-29T09:05:41.039Z,1.60
2018-01-29T09:08:10.924Z,1.57
2018-01-29T09:10:42.294Z,2.03
2018-01-29T09:13:12.388Z,2.90
2018-01-29T09:15:42.331Z,2.93
2018-01-29T09:18:12.211Z,2.00
2018-01-29T09:20:43.025Z,2.40
2018-01-29T09:23:13.049Z,2.00
2018-01-29T09:25:42.936Z,2.00
2018-01-29T09:28:12.795Z,2.43
2018-01-29T09:30:42.691Z,2.33
2018-01-29T09:33:12.569Z,3.00
2018-01-29T09:35:42.404Z,2.10
2018-01-29T09:38:12.286Z,2.93
2018-01-29T09:40:42.211Z,2.23
2018-01-29T09:43:12.088Z,1.77
2018-01-29T09:45:41.967Z,2.07
2018-01-29T09:48:11.882Z,2.50
2018-01-29T09:50:41.800Z,1.70
2018-01-29T09:53:11.688Z,2.07
2018-01-29T09:55:41.690Z,2.10
2018-01-29T09:58:11.713Z,1.80
2018-01-29T10:00:41.745Z,2.17
2018-01-29T10:03:11.625Z,4.50
2018-01-29T10:05:41.575Z,4.50
2018-01-29T10:08:11.429Z,3.20
2018-01-29T10:10:41.417Z,4.10
2018-01-29T10:13:11.283Z,2.30
2018-01-29T10:15:41.316Z,2.60
2018-01-29T10:18:11.190Z,2.80
2018-01-29T10:20:41.491Z,2.40
2018-01-29T10:23:11.385Z,2.60
2018-01-29T10:25:41.316Z,2.67
2018-01-29T10:28:11.212Z,1.80
2018-01-29T10:30:41.089Z,3.43
2018-01-29T10:33:10.957Z,2.13
2018-01-29T10:35:40.804Z,1.53
2018-01-29T10:38:10.992Z,2.00
2018-01-29T10:40:41.154Z,1.50
2018-01-29T10:43:11.478Z,2.07
2018-01-29T10:45:42.170Z,1.70
2018-01-29T10:48:12.440Z,1.73
2018-01-29T10:50:42.244Z,1.40
2018-01-29T10:53:12.209Z,1.30
2018-01-29T10:55:43.050Z,1.30
2018-01-29T10:58:12.893Z,3.27
2018-01-29T11:00:48.493Z,1.43
2018-01-29T11:03:18.438Z,1.50
2018-01-29T11:05:49.058Z,1.80
2018-01-29T11:08:19.038Z,1.50
2018-01-29T11:10:48.894Z,1.90
2018-01-29T11:13:18.828Z,1.50
2018-01-29T11:15:48.668Z,1.70
2018-01-29T11:18:18.569Z,1.23
2018-01-29T11:20:48.540Z,1.27
2018-01-29T11:23:18.509Z,1.50
2018-01-29T11:25:48.400Z,1.00
2018-01-29T11:28:18.247Z,1.40
2018-01-29T11:30:48.123Z,1.27
2018-01-29T11:33:17.948Z,1.30
2018-01-29T11:35:47.868Z,1.87
2018-01-29T11:38:18.086Z,1.30
2018-01-29T11:40:47.977Z,1.40
2018-01-29T11:43:17.829Z,1.50
2018-01-29T11:45:47.672Z,1.90
2018-01-29T11:48:17.551Z,1.57
2018-01-29T11:50:47.422Z,1.40
2018-01-29T11:53:17.276Z,1.37
2018-01-29T11:55:47.211Z,1.57
2018-01-29T11:58:17.075Z,1.70
2018-01-29T12:00:46.917Z,1.80
2018-01-29T12:03:16.774Z,1.47
2018-01-29T12:05:46.645Z,1.30
2018-01-29T12:08:16.481Z,1.57
2018-01-29T12:10:46.374Z,1.50
2018-01-29T12:13:16.219Z,1.27
2018-01-29T12:15:46.251Z,1.10
2018-01-29T12:18:16.174Z,1.60
2018-01-29T12:20:46.062Z,1.57
2018-01-29T12:23:15.954Z,1.17
2018-01-29T12:25:45.801Z,1.13
2018-01-29T12:28:17.348Z,1.30
2018-01-29T12:30:47.238Z,1.13
2018-01-29T12:33:17.150Z,1.20
2018-01-29T12:35:47.031Z,1.90
2018-01-29T12:38:16.891Z,1.20
2018-01-29T12:40:48.147Z,1.30
2018-01-29T12:43:18.066Z,1.10
2018-01-29T12:45:48.113Z,1.07
2018-01-29T12:48:17.988Z,1.43
2018-01-29T12:50:47.863Z,1.23
2018-01-29T12:53:17.696Z,1.00
2018-01-29T12:55:47.883Z,1.03
2018-01-29T12:58:17.826Z,1.00
2018-01-29T13:00:48.576Z,1.00
2018-01-29T13:03:18.635Z,2.90
2018-01-29T13:05:48.763Z,1.60
2018-01-29T13:08:18.885Z,1.00
2018-01-29T13:10:48.776Z,1.00
2018-01-29T13:13:18.610Z,1.00
2018-01-29T13:15:48.658Z,1.03
2018-01-29T13:18:18.638Z,0.97
2018-01-29T13:20:48.552Z,1.03
2018-01-29T13:23:18.380Z,1.03
2018-01-29T13:25:48.630Z,0.90
2018-01-29T13:28:18.560Z,1.13
2018-01-29T13:30:48.474Z,1.00
2018-01-29T13:33:18.524Z,0.77
2018-01-29T13:35:48.506Z,0.60
2018-01-29T13:38:18.549Z,0.60
2018-01-29T13:40:48.432Z,0.70
2018-01-29T13:43:18.285Z,0.80
2018-01-29T13:45:48.217Z,0.80
2018-01-29T13:48:18.306Z,1.27
2018-01-29T13:50:48.131Z,2.60
2018-01-29T13:53:18.288Z,1.97
2018-01-29T13:55:48.325Z,1.50
2018-01-29T13:58:18.357Z,1.23
2018-01-29T14:00:48.180Z,1.70
2018-01-29T14:03:18.149Z,0.90
2018-01-29T14:05:48.086Z,0.73
2018-01-29T14:08:17.989Z,1.00
2018-01-29T14:10:47.886Z,0.80
2018-01-29T14:13:17.801Z,1.37
2018-01-29T14:15:47.644Z,0.80
2018-01-29T14:18:18.184Z,0.77
2018-01-29T14:20:48.188Z,1.30
2018-01-29T14:23:18.024Z,0.60
2018-01-29T14:25:47.970Z,0.67
2018-01-29T14:28:17.863Z,1.00
2018-01-29T14:30:47.804Z,0.87
2018-01-29T14:33:17.649Z,1.23
2018-01-29T14:35:47.754Z,0.90
2018-01-29T14:38:17.635Z,0.80
2018-01-29T14:40:47.535Z,1.00
2018-01-29T14:43:17.397Z,0.73
2018-01-29T14:45:47.306Z,0.80
2018-01-29T14:48:17.125Z,0.67
2018-01-29T14:50:47.036Z,1.00
2018-01-29T14:53:16.978Z,0.90
2018-01-29T14:55:46.798Z,0.80
2018-01-29T14:58:16.773Z,0.73
2018-01-29T15:00:46.651Z,0.77
2018-01-29T15:03:16.501Z,0.60
2018-01-29T15:05:46.418Z,0.73
2018-01-29T15:08:16.417Z,0.77
2018-01-29T15:10:46.288Z,0.70
2018-01-29T15:13:16.164Z,0.70
2018-01-29T15:15:46.205Z,0.93
2018-01-29T15:18:16.118Z,0.67
2018-01-29T15:20:46.333Z,0.60
2018-01-29T15:23:16.202Z,0.70
2018-01-29T15:25:46.078Z,0.73
2018-01-29T15:28:16.068Z,0.80
2018-01-29T15:30:46.302Z,0.90
2018-01-29T15:33:16.189Z,0.70
2018-01-29T15:35:46.018Z,1.17
2018-01-29T15:38:17.259Z,0.90
2018-01-29T15:40:47.110Z,0.83
2018-01-29T15:43:17.410Z,0.60
2018-01-29T15:45:47.275Z,1.03
2018-01-29T15:48:17.126Z,0.67
2018-01-29T15:50:46.964Z,0.50
2018-01-29T15:53:16.847Z,0.47
2018-01-29T15:55:46.702Z,0.50
2018-01-29T15:58:16.512Z,0.40
2018-01-29T16:00:46.389Z,0.63
2018-01-29T16:03:16.286Z,0.60
2018-01-29T16:05:46.198Z,0.70
2018-01-29T16:08:16.030Z,0.50
2018-01-29T16:10:45.861Z,0.40
2018-01-29T16:13:15.840Z,0.40
2018-01-29T16:15:45.658Z,0.53
2018-01-29T16:18:15.566Z,0.70
2018-01-29T16:20:45.414Z,1.00
2018-01-29T16:23:15.293Z,0.60
2018-01-29T16:25:45.114Z,0.67
2018-01-29T16:28:15.086Z,0.97
2018-01-29T16:32:59.298Z,0.83
2018-01-29T16:35:44.418Z,0.83
2018-01-29T16:38:14.243Z,1.20
2018-01-29T16:40:44.120Z,1.00
2018-01-29T16:43:14.028Z,1.23
2018-01-29T16:45:44.016Z,1.27
2018-01-29T16:48:13.880Z,1.10
2018-01-29T16:50:43.741Z,1.30
2018-01-29T16:53:13.643Z,1.30
2018-01-29T16:55:43.714Z,0.97
2018-01-29T16:58:13.828Z,0.80
2018-01-29T17:00:43.671Z,0.83
2018-01-29T17:03:13.540Z,1.27
2018-01-29T17:05:43.381Z,1.00
2018-01-29T17:08:13.265Z,1.23
2018-01-29T17:10:43.335Z,0.90
2018-01-29T17:13:13.392Z,1.10
2018-01-29T17:15:43.250Z,1.57
2018-01-29T17:18:13.172Z,1.00
2018-01-29T17:20:43.155Z,1.00
2018-01-29T17:23:12.972Z,0.60
2018-01-29T17:25:42.900Z,1.00
2018-01-29T17:28:12.724Z,0.70
2018-01-29T17:30:48.025Z,1.20
2018-01-29T17:33:17.790Z,1.23
2018-01-29T17:35:47.676Z,1.40
2018-01-29T17:38:17.575Z,1.30
2018-01-29T17:40:47.574Z,0.90
2018-01-29T17:43:18.396Z,1.50
2018-01-29T17:45:48.395Z,1.30
2018-01-29T17:48:18.242Z,1.07
2018-01-29T17:50:48.137Z,0.87
2018-01-29T17:53:18.185Z,1.30
2018-01-29T17:55:48.957Z,1.10
2018-01-29T17:58:18.946Z,1.27
2018-01-29T18:00:48.810Z,1.60
2018-01-29T18:03:18.962Z,1.80
2018-01-29T18:05:48.796Z,1.40
2018-01-29T18:08:18.716Z,2.00
2018-01-29T18:10:48.886Z,1.23
2018-01-29T18:13:18.855Z,2.27
2018-01-29T18:15:48.693Z,1.20
2018-01-29T18:18:18.726Z,1.47
2018-01-29T18:20:48.574Z,1.23
2018-01-29T18:37:09.728Z,1.60
2018-01-29T18:39:39.642Z,2.47
2018-01-29T18:42:09.523Z,1.73
2018-01-29T18:44:39.461Z,1.10
2018-01-29T18:47:09.757Z,1.67
2018-01-29T18:49:39.597Z,1.17
2018-01-29T18:52:09.587Z,1.10
2018-01-29T18:54:39.455Z,1.80
2018-01-29T18:57:09.379Z,1.37
2018-01-29T18:59:41.375Z,1.27
2018-01-29T19:02:47.444Z,1.33
2018-01-29T19:05:22.486Z,1.73
2018-01-29T19:07:52.633Z,1.53
2018-01-29T19:10:22.649Z,1.57
2018-01-29T19:12:52.523Z,1.83
2018-01-29T19:15:22.367Z,1.10
2018-01-29T19:17:52.244Z,1.80
2018-01-29T19:20:22.089Z,1.40
2018-01-29T19:22:51.947Z,1.37
2018-01-29T19:25:21.816Z,1.30
2018-01-29T19:27:51.680Z,0.97
2018-01-29T19:30:22.225Z,1.73
2018-01-29T19:32:52.091Z,0.97
2018-01-29T19:35:21.943Z,1.10
2018-01-29T19:37:51.765Z,1.80
2018-01-29T19:40:21.641Z,1.20
2018-01-29T19:42:52.142Z,1.40
2018-01-29T19:45:21.998Z,2.53
2018-01-29T19:47:52.089Z,1.67
2018-01-29T19:50:22.020Z,1.43
2018-01-29T19:52:51.920Z,2.77
2018-01-29T19:55:21.757Z,1.47
2018-01-29T19:57:51.894Z,2.90
2018-01-29T20:00:22.015Z,2.30
2018-01-29T20:02:57.939Z,2.17
2018-01-29T20:05:35.744Z,2.30
2018-01-29T20:08:09.887Z,2.43
2018-01-29T20:10:55.618Z,1.40
2018-01-29T20:16:12.069Z,2.83
2018-01-29T20:18:42.067Z,2.70
2018-01-29T20:21:14.064Z,3.40
2018-01-29T20:23:44.166Z,3.00
2018-01-29T20:28:50.954Z,2.87
2018-01-29T20:31:20.962Z,3.20
2018-01-29T20:33:51.695Z,3.87
2018-01-29T20:36:21.766Z,2.20
2018-01-29T20:38:51.673Z,3.90
2018-01-29T20:41:21.577Z,4.30
2018-01-29T20:43:51.536Z,3.10
2018-01-29T20:46:21.776Z,2.63
2018-01-29T20:48:51.892Z,4.13
2018-01-29T20:51:22.923Z,3.80
2018-01-29T20:53:53.837Z,3.67
2018-01-29T20:56:23.664Z,3.03
2018-01-29T20:58:53.552Z,5.23
2018-01-29T21:01:23.394Z,2.90
2018-01-29T21:03:53.452Z,2.77
2018-01-29T21:06:30.362Z,3.13
2018-01-29T21:15:05.704Z,3.27
2018-01-29T21:17:38.421Z,3.10
2018-01-29T21:20:20.110Z,3.53
2018-01-29T21:22:57.645Z,3.23
2018-01-29T21:25:27.696Z,3.73
2018-01-29T21:27:57.673Z,3.53
2018-01-29T21:30:28.465Z,4.47
2018-01-29T21:32:58.419Z,3.80
2018-01-29T21:35:28.341Z,4.53
2018-01-29T21:38:02.322Z,3.10
2018-01-29T21:40:34.304Z,3.33
2018-01-29T21:43:04.239Z,2.50
2018-01-29T21:45:34.200Z,4.43
2018-01-29T21:48:04.526Z,3.03
2018-01-29T21:50:37.706Z,3.90
2018-01-29T21:53:09.196Z,2.83
2018-01-29T21:55:43.268Z,3.33
2018-01-29T21:58:14.114Z,3.17
2018-01-29T22:00:44.281Z,4.70
2018-01-29T22:03:14.486Z,2.97
2018-01-29T22:05:46.328Z,3.97
2018-01-29T22:08:16.777Z,2.63
2018-01-29T22:10:47.136Z,3.27
2018-01-29T22:13:19.378Z,3.57
2018-01-29T22:15:51.753Z,1.97
2018-01-29T22:24:17.739Z,3.43
2018-01-29T22:26:51.376Z,2.13
2018-01-29T22:29:45.751Z,3.77
2018-01-29T22:35:26.690Z,3.20
2018-01-29T22:37:57.236Z,4.20
2018-01-29T22:40:27.170Z,2.60
2018-01-29T22:42:57.348Z,4.07
2018-01-29T22:45:27.380Z,3.40
2018-01-29T22:47:57.934Z,4.17
2018-01-29T22:50:29.427Z,2.53
2018-01-29T22:53:02.898Z,4.20
2018-01-29T22:55:32.904Z,3.53
2018-01-29T22:58:02.820Z,3.07
2018-01-29T23:00:32.706Z,2.73
2018-01-29T23:03:02.743Z,2.60
2018-01-29T23:05:42.523Z,1.60
2018-01-29T23:08:12.981Z,2.43
2018-01-29T23:10:46.116Z,3.33
2018-01-29T23:13:16.960Z,2.67
2018-01-29T23:15:47.957Z,3.90
